GW4076 Weather Reports


Display with metric or nautical units.
time (UTC)temp
F
wind
direction
speed
MPH
gust
MPH
rain 1hr
in
rain 24hr
in
rain mn
in
humidity
%
barometer
mb
20260506155046 59 229 1.0 7.0 0.00 0.17 0.17 93 1008.5
20260506154556 59 0 2.0 7.0 0.00 0.17 0.17 93 1008.6
20260506154049 59 217 1.0 6.0 0.00 0.17 0.17 93 1008.7
20260506153543 59 174 1.0 6.0 0.00 0.17 0.17 93 1008.5
20260506153051 59 172 3.0 6.0 0.01 0.17 0.17 93 1008.4
20260506152542 59 0 2.0 7.0 0.01 0.17 0.17 93 1008.5
20260506152047 60 170 2.0 7.0 0.01 0.17 0.17 93 1008.5
20260506151605 59 136 1.0 4.0 0.01 0.17 0.17 93 1008.4
20260506151044 59 215 1.0 5.0 0.01 0.17 0.17 93 1008.3
20260506150544 59 141 1.0 5.0 0.01 0.17 0.17 93 1008.4
20260506150056 59 163 2.0 5.0 0.01 0.17 0.17 94 1008.9
20260506145546 59 159 1.0 6.0 0.01 0.17 0.17 94 1008.7
20260506145045 59 160 3.0 6.0 0.01 0.17 0.17 93 1008.5
20260506144550 59 161 1.0 6.0 0.01 0.17 0.17 93 1008.5
20260506144043 59 153 1.0 7.0 0.01 0.17 0.17 93 1008.7
20260506143543 59 88 0.0 7.0 0.02 0.17 0.17 93 1008.9
20260506143057 59 0 1.0 7.0 0.01 0.16 0.16 93 1009.1
20260506142543 59 0 1.0 4.0 0.01 0.16 0.16 93 1009.2
20260506142044 59 0 0.0 4.0 0.01 0.16 0.16 93 1009.1
20260506141607 59 20 1.0 3.0 0.02 0.16 0.16 93 1009.0
20260506141042 59 194 0.0 5.0 0.02 0.16 0.16 93 1009.1
20260506140546 59 194 1.0 5.0 0.03 0.16 0.16 93 1009.2
20260506140106 59 155 1.0 4.0 0.03 0.16 0.16 93 1009.0
20260506135541 59 175 1.0 4.0 0.03 0.16 0.16 93 1008.9
20260506135044 59 175 1.0 4.0 0.03 0.16 0.16 93 1008.9
20260506134555 59 175 1.0 4.0 0.04 0.16 0.16 93 1009.1
20260506134041 59 0 1.0 4.0 0.04 0.16 0.16 93 1008.9
20260506133545 59 179 2.0 4.0 0.04 0.15 0.15 93 1008.9
20260506133052 59 113 1.0 4.0 0.04 0.15 0.15 93 1008.9
20260506132544 59 0 1.0 3.0 0.04 0.15 0.15 93 1008.9
20260506132044 59 37 0.0 4.0 0.04 0.14 0.14 93 1009.1
20260506131555 59 36 0.0 4.0 0.05 0.14 0.14 93 1009.0
20260506131043 59 34 0.0 4.0 0.05 0.14 0.14 93 1009.2
20260506130542 59 343 0.0 4.0 0.05 0.13 0.13 93 1009.3
20260506130125 59 343 1.0 4.0 0.06 0.13 0.13 92 1009.2
20260506125542 59 5 0.0 3.0 0.07 0.13 0.13 92 1009.2
20260506125044 58 294 1.0 3.0 0.07 0.13 0.13 92 1009.2
20260506124556 59 297 0.0 3.0 0.07 0.12 0.12 92 1009.1
20260506124042 59 0 0.0 3.0 0.08 0.12 0.12 92 1009.4
20260506123544 59 0 1.0 3.0 0.07 0.11 0.11 92 1009.4
20260506123055 59 349 0.0 3.0 0.08 0.11 0.11 92 1009.2
20260506122544 59 349 1.0 3.0 0.09 0.11 0.11 92 1009.0
20260506122044 59 349 0.0 2.0 0.08 0.10 0.10 92 1009.1
20260506121555 59 0 0.0 2.0 0.08 0.09 0.09 91 1009.3
20260506121043 59 349 0.0 2.0 0.07 0.08 0.08 91 1009.4
20260506120544 59 349 0.0 2.0 0.07 0.08 0.08 91 1009.4
20260506120053 59 0 0.0 1.0 0.06 0.07 0.07 90 1009.4
20260506115545 59 0 0.0 2.0 0.05 0.06 0.06 90 1009.7
20260506115044 59 0 0.0 3.0 0.05 0.06 0.06 89 1009.6
20260506114554 59 0 0.0 3.0 0.04 0.05 0.05 88 1009.6
20260506114044 60 0 0.0 2.0 0.03 0.04 0.04 88 1009.6
20260506113544 60 276 0.0 2.0 0.03 0.04 0.04 87 1009.6
20260506113105 60 0 0.0 2.0 0.02 0.03 0.03 86 1009.7
20260506112543 60 0 0.0 2.0 0.02 0.02 0.02 85 1009.7
20260506112043 60 276 0.0 2.0 0.02 0.02 0.02 85 1009.7
20260506111554 60 276 0.0 2.0 0.01 0.01 0.01 84 1009.5
20260506111043 60 276 0.0 2.0 0.01 0.01 0.01 84 1009.4
20260506110545 60 0 0.0 2.0 0.01 0.01 0.01 85 1009.3
20260506110100 61 0 0.0 0.0 0.01 0.01 0.01 84 1009.1
20260506105544 61 0 0.0 2.0 0.01 0.01 0.01 83 1009.1
20260506105046 61 0 0.0 2.0 0.01 0.01 0.01 83 1009.1
20260506104614 61 0 0.0 2.0 0.01 0.01 0.01 82 1009.1
20260506104043 62 0 0.0 2.0 0.01 0.01 0.01 80 1009.0
20260506103543 62 136 0.0 3.0 0.01 0.01 0.01 80 1009.0
20260506103053 62 0 0.0 3.0 0.01 0.01 0.01 79 1008.9
20260506102544 62 0 0.0 3.0 0.00 0.00 0.00 78 1009.0
20260506102042 62 0 0.0 6.0 0.00 0.00 0.00 78 1008.8
20260506101556 62 128 1.0 6.0 0.00 0.00 0.00 77 1008.7
20260506101045 63 171 0.0 4.0 0.00 0.00 0.00 77 1008.7
20260506100548 63 0 1.0 4.0 0.00 0.00 0.00 76 1008.6
20260506100054 63 170 1.0 5.0 0.00 0.00 0.00 74 1008.7
20260506095547 64 170 2.0 5.0 0.00 0.00 0.00 73 1008.6
20260506095044 64 182 0.0 6.0 0.00 0.00 0.00 72 1008.6
20260506094558 64 181 1.0 6.0 0.00 0.00 0.00 71 1008.6
20260506094044 64 283 2.0 6.0 0.00 0.00 0.00 69 1008.5
20260506093547 65 163 2.0 6.0 0.00 0.00 0.00 69 1008.5
20260506093100 65 157 1.0 7.0 0.00 0.00 0.00 68 1008.5
20260506092543 65 177 0.0 7.0 0.00 0.00 0.00 68 1008.6
20260506092043 65 159 3.0 7.0 0.00 0.00 0.00 68 1008.6
20260506091552 65 169 3.0 8.0 0.00 0.00 0.00 67 1008.5
20260506091047 65 167 2.0 8.0 0.00 0.00 0.00 67 1008.5
20260506090548 65 165 1.0 6.0 0.00 0.00 0.00 67 1008.5
20260506090050 65 138 0.0 6.0 0.00 0.00 0.00 66 1008.5
20260506085543 65 0 2.0 6.0 0.00 0.00 0.00 66 1008.5
20260506085043 65 165 1.0 6.0 0.00 0.00 0.00 66 1008.6
20260506084553 65 165 1.0 6.0 0.00 0.00 0.00 66 1008.7
20260506084043 65 167 2.0 7.0 0.00 0.00 0.00 66 1008.6
20260506083542 65 167 3.0 7.0 0.00 0.00 0.00 65 1008.7
20260506083050 65 199 1.0 6.0 0.00 0.00 0.00 65 1008.8
20260506082542 65 189 2.0 6.0 0.00 0.00 0.00 65 1008.8
20260506082047 65 155 1.0 6.0 0.00 0.00 0.00 65 1008.8
20260506081549 65 176 1.0 6.0 0.00 0.00 0.00 65 1008.8
20260506081042 65 160 1.0 7.0 0.00 0.00 0.00 65 1008.8
20260506080543 65 0 1.0 7.0 0.00 0.00 0.00 65 1008.8
20260506073058 66 178 2.0 7.0 0.00 0.00 0.00 62 1008.7
20260506072544 66 196 1.0 6.0 0.00 0.00 0.00 62 1008.8
20260506072045 66 64 1.0 6.0 0.00 0.00 0.00 62 1008.8
20260506071611 66 165 2.0 6.0 0.00 0.00 0.00 61 1008.8
20260506071042 66 191 1.0 5.0 0.00 0.00 0.00 61 1008.8
20260506070543 66 188 2.0 6.0 0.00 0.00 0.00 61 1008.8
20260506062042 67 0 0.0 3.0 0.00 0.00 0.00 59 1009.4
20260506061551 67 143 1.0 4.0 0.00 0.00 0.00 59 1009.5
20260506061044 67 0 0.0 4.0 0.00 0.00 0.00 59 1009.5
20260506060546 67 143 1.0 4.0 0.00 0.00 0.00 58 1009.5
20260506051043 67 84 1.0 3.0 0.00 0.00 0.00 56 1010.0
20260506050543 67 331 0.0 3.0 0.00 0.00 0.00 55 1010.1
20260506045044 68 0 0.0 3.0 0.00 0.00 0.00 54 1010.1
20260506044555 68 0 0.0 4.0 0.00 0.00 0.00 53 1010.1
20260506044043 68 0 1.0 4.0 0.00 0.00 0.00 52 1010.0
20260506043547 68 331 0.0 3.0 0.00 0.00 0.00 52 1010.1
20260506043050 68 332 0.0 3.0 0.00 0.00 0.00 52 1010.0
20260506042543 68 0 0.0 3.0 0.00 0.00 0.00 51 1010.1
20260506042042 68 0 0.0 3.0 0.00 0.00 0.00 51 1010.1
20260506041559 68 0 0.0 3.0 0.00 0.00 0.00 50 1010.0
20260506041044 68 0 0.0 2.0 0.00 0.00 0.00 50 1010.1
20260506040545 68 0 0.0 2.0 0.00 0.00 0.00 49 1010.0
20260506040050 68 0 0.0 3.0 0.00 0.00 0.00 49 1010.0
20260506035547 69 0 0.0 4.0 0.00 0.00 0.00 50 1010.0
20260506035047 69 0 0.0 4.0 0.00 0.00 0.00 49 1010.0
20260506034554 69 0 0.0 4.0 0.00 0.00 0.00 48 1009.9
20260506034044 69 0 0.0 4.0 0.00 0.00 0.00 47 1010.0
20260506033547 69 0 0.0 4.0 0.00 0.00 0.00 48 1010.0
20260506033052 69 0 0.0 4.0 0.00 0.00 0.00 47 1010.0
20260506032543 69 161 0.0 2.0 0.00 0.00 0.00 47 1009.9
20260506032043 69 0 0.0 2.0 0.00 0.00 0.00 48 1009.8
20260506031555 69 161 0.0 2.0 0.00 0.00 0.00 48 1009.8
20260506031043 69 0 0.0 2.0 0.00 0.00 0.00 48 1009.8
20260506030542 69 161 0.0 2.0 0.00 0.00 0.00 47 1009.8
20260506030051 69 0 0.0 2.0 0.00 0.00 0.00 49 1009.8
20260506025546 69 0 0.0 2.0 0.00 0.00 0.00 48 1009.9
20260506025045 69 161 0.0 4.0 0.00 0.00 0.00 48 1009.9
20260506024550 69 0 0.0 4.0 0.00 0.00 0.00 46 1010.0
20260506024043 69 0 0.0 2.0 0.00 0.00 0.00 47 1009.9
20260506023542 69 0 0.0 2.0 0.00 0.00 0.00 46 1009.9
20260506023051 70 0 0.0 3.0 0.00 0.00 0.00 46 1009.8
20260506022542 70 0 0.0 4.0 0.00 0.00 0.00 45 1010.0
20260506022043 70 0 0.0 4.0 0.00 0.00 0.00 45 1009.9
20260506021553 70 0 0.0 4.0 0.00 0.00 0.00 45 1009.9
20260506021045 70 0 0.0 2.0 0.00 0.00 0.00 45 1010.0
20260506020542 70 161 0.0 2.0 0.00 0.00 0.00 44 1010.0
20260506020048 70 0 0.0 4.0 0.00 0.00 0.00 43 1009.9
20260506015543 70 0 0.0 4.0 0.00 0.00 0.00 42 1009.9
20260506015042 71 0 0.0 2.0 0.00 0.00 0.00 43 1009.7
20260506014558 71 0 0.0 3.0 0.00 0.00 0.00 42 1009.7
20260506014044 71 161 0.0 4.0 0.00 0.00 0.00 40 1009.7
20260506013542 71 0 1.0 4.0 0.00 0.00 0.00 39 1009.6
20260506013055 72 161 0.0 5.0 0.00 0.00 0.00 39 1009.6
20260506012545 72 160 0.0 5.0 0.00 0.00 0.00 38 1009.5
20260506012043 72 160 0.0 6.0 0.00 0.00 0.00 38 1009.5
20260506011551 72 0 1.0 6.0 0.00 0.00 0.00 37 1009.4
20260506011042 72 181 1.0 4.0 0.00 0.00 0.00 37 1009.4
20260506010545 72 181 0.0 4.0 0.00 0.00 0.00 37 1009.3
20260506010057 72 181 1.0 3.0 0.00 0.00 0.00 37 1009.2
20260506005542 72 181 1.0 3.0 0.00 0.00 0.00 37 1009.2
20260506005042 73 0 0.0 3.0 0.00 0.00 0.00 37 1009.2
20260506004556 73 0 1.0 4.0 0.00 0.00 0.00 36 1009.2
20260506004042 73 181 1.0 4.0 0.00 0.00 0.00 36 1009.1
20260506003543 73 182 2.0 4.0 0.00 0.00 0.00 36 1008.9
20260506003050 73 0 1.0 4.0 0.00 0.00 0.00 37 1008.9
20260506002545 73 180 1.0 4.0 0.00 0.00 0.00 37 1009.0
20260506002042 73 0 1.0 4.0 0.00 0.00 0.00 37 1008.9
20260506001609 74 161 0.0 4.0 0.00 0.00 0.00 36 1008.8
20260506001042 74 161 1.0 4.0 0.00 0.00 0.00 36 1008.8
20260506000542 74 161 0.0 4.0 0.00 0.00 0.00 37 1008.7
20260506000051 74 161 0.0 5.0 0.00 0.00 0.00 37 1008.6
20260505235543 75 161 1.0 5.0 0.00 0.00 0.00 36 1008.5
20260505235046 75 161 1.0 5.0 0.00 0.00 0.00 37 1008.5
20260505234551 75 161 1.0 5.0 0.00 0.00 0.00 36 1008.6
20260505234043 76 161 1.0 4.0 0.00 0.00 0.00 37 1008.4
20260505233546 76 184 1.0 8.0 0.00 0.00 0.00 36 1008.5
20260505233055 76 184 1.0 8.0 0.00 0.00 0.00 36 1008.5
20260505232543 76 165 1.0 6.0 0.00 0.00 0.00 36 1008.5
20260505232043 77 157 1.0 6.0 0.00 0.00 0.00 34 1008.6
20260505231555 77 204 2.0 6.0 0.00 0.00 0.00 35 1008.5
20260505231046 77 164 1.0 7.0 0.00 0.00 0.00 35 1008.5
20260505230544 77 169 2.0 8.0 0.00 0.00 0.00 35 1008.4
20260505225542 78 183 2.0 8.0 0.00 0.00 0.00 34 1008.4
20260505225043 78 170 3.0 9.0 0.00 0.00 0.00 34 1008.4
20260505224556 78 211 3.0 9.0 0.00 0.00 0.00 34 1008.4
20260505224042 78 169 2.0 6.0 0.00 0.00 0.00 35 1008.5
20260505223542 78 159 2.0 7.0 0.00 0.00 0.00 35 1008.4
20260505223059 77 205 2.0 10.0 0.00 0.00 0.00 35 1008.5
20260505222542 77 178 3.0 10.0 0.00 0.00 0.00 35 1008.6
20260505222045 78 211 2.0 7.0 0.00 0.00 0.00 36 1008.6
20260505221600 78 197 2.0 9.0 0.00 0.00 0.00 34 1008.4
20260505221044 78 145 3.0 9.0 0.00 0.00 0.00 34 1008.6
20260505220547 78 165 2.0 7.0 0.00 0.00 0.00 34 1008.6
20260505220056 78 168 2.0 7.0 0.00 0.00 0.00 35 1008.7
20260505215542 78 191 3.0 7.0 0.00 0.00 0.00 34 1008.5
20260505215045 78 157 3.0 7.0 0.00 0.00 0.00 35 1008.6
20260505214605 78 159 2.0 7.0 0.00 0.00 0.00 36 1008.6
20260505214042 78 137 2.0 7.0 0.00 0.00 0.00 36 1008.6
20260505213542 78 115 3.0 7.0 0.00 0.00 0.00 35 1008.5
20260505213100 78 188 1.0 7.0 0.00 0.00 0.00 37 1008.3
20260505212545 78 180 2.0 11.0 0.00 0.00 0.00 36 1008.5
20260505212042 79 161 4.0 11.0 0.00 0.00 0.00 34 1008.5
20260505211553 79 167 3.0 11.0 0.00 0.00 0.00 35 1008.4
20260505211046 80 178 4.0 9.0 0.00 0.00 0.00 34 1008.3
20260505210541 80 178 3.0 9.0 0.00 0.00 0.00 35 1008.3
20260505210105 80 159 3.0 9.0 0.00 0.00 0.00 35 1008.4
20260505205542 80 146 3.0 7.0 0.00 0.00 0.00 35 1008.4
20260505205041 81 179 2.0 7.0 0.00 0.00 0.00 38 1008.3
20260505204558 81 194 3.0 10.0 0.00 0.00 0.00 36 1008.3
20260505204042 81 178 4.0 10.0 0.00 0.00 0.00 36 1008.3
20260505203541 81 161 4.0 8.0 0.00 0.00 0.00 37 1008.2
20260505203053 81 153 3.0 9.0 0.00 0.00 0.00 37 1008.2
20260505202542 81 191 3.0 10.0 0.00 0.00 0.00 36 1008.2
20260505202051 81 173 3.0 11.0 0.00 0.00 0.00 36 1008.3
20260505201601 81 171 4.0 11.0 0.00 0.00 0.00 36 1008.3
20260505201042 80 175 3.0 8.0 0.00 0.00 0.00 38 1008.2
20260505200545 80 163 2.0 9.0 0.00 0.00 0.00 37 1008.2
20260505200050 80 178 3.0 9.0 0.00 0.00 0.00 36 1008.3
20260505195545 80 196 3.0 10.0 0.00 0.00 0.00 37 1008.3
20260505195046 81 179 2.0 11.0 0.00 0.00 0.00 39 1008.5
20260505194549 81 186 3.0 11.0 0.00 0.00 0.00 35 1008.5
20260505194045 81 180 2.0 10.0 0.00 0.00 0.00 38 1008.6
20260505193548 81 159 4.0 10.0 0.00 0.00 0.00 36 1008.7
20260505193054 81 155 4.0 8.0 0.00 0.00 0.00 38 1008.7
20260505192546 81 192 3.0 7.0 0.00 0.00 0.00 40 1008.8
20260505192044 80 226 3.0 9.0 0.00 0.00 0.00 37 1008.9
20260505191558 81 153 4.0 9.0 0.00 0.00 0.00 38 1008.8
20260505191042 81 159 2.0 7.0 0.00 0.00 0.00 40 1009.0
20260505190541 81 163 3.0 8.0 0.00 0.00 0.00 39 1009.1
20260505190104 81 194 3.0 8.0 0.00 0.00 0.00 38 1009.1
20260505185544 81 152 3.0 7.0 0.00 0.00 0.00 39 1009.3
20260505185046 81 154 3.0 7.0 0.00 0.00 0.00 37 1009.3
20260505184604 81 168 2.0 8.0 0.00 0.00 0.00 38 1009.4
20260505184042 81 0 3.0 9.0 0.00 0.00 0.00 37 1009.4
20260505183545 80 197 3.0 9.0 0.00 0.00 0.00 38 1009.5
20260505183056 80 227 1.0 8.0 0.00 0.00 0.00 41 1009.6
20260505182545 80 169 3.0 8.0 0.00 0.00 0.00 39 1009.7
20260505182045 80 173 2.0 8.0 0.00 0.00 0.00 39 1009.7
20260505181559 80 193 2.0 8.0 0.00 0.00 0.00 39 1009.8
20260505181048 80 165 4.0 8.0 0.00 0.00 0.00 39 1009.9
20260505180544 79 184 3.0 7.0 0.00 0.00 0.00 38 1009.9
20260505180053 79 159 2.0 9.0 0.00 0.00 0.00 41 1010.0
20260505175542 79 194 3.0 13.0 0.00 0.00 0.00 39 1010.2
20260505175042 79 167 3.0 13.0 0.00 0.00 0.00 41 1010.1
20260505174550 79 176 3.0 13.0 0.00 0.00 0.00 40 1010.3
20260505174046 79 147 2.0 8.0 0.00 0.00 0.00 41 1010.3
20260505173546 79 189 1.0 8.0 0.00 0.00 0.00 41 1010.2
20260505173052 79 200 1.0 7.0 0.00 0.00 0.00 41 1010.2
20260505172547 78 188 3.0 7.0 0.00 0.00 0.00 43 1010.3
20260505172045 78 148 2.0 6.0 0.00 0.00 0.00 41 1010.3
20260505171551 79 174 2.0 7.0 0.00 0.00 0.00 40 1010.3
20260505171046 79 160 3.0 7.0 0.00 0.00 0.00 40 1010.4
20260505170545 79 159 3.0 7.0 0.00 0.00 0.00 42 1010.4
20260505170059 79 225 1.0 4.0 0.00 0.00 0.00 43 1010.5
20260505165542 78 200 1.0 7.0 0.00 0.00 0.00 41 1010.6
20260505165045 78 178 3.0 7.0 0.00 0.00 0.00 41 1010.8
20260505164551 78 173 2.0 8.0 0.00 0.00 0.00 41 1010.9
20260505164045 78 167 2.0 8.0 0.00 0.00 0.00 42 1010.9
20260505163544 78 157 2.0 7.0 0.00 0.00 0.00 42 1011.1
20260505163055 77 206 2.0 12.0 0.00 0.00 0.00 42 1011.1
20260505162541 77 248 3.0 12.0 0.00 0.00 0.00 47 1011.1
20260505162045 77 187 2.0 7.0 0.00 0.00 0.00 44 1011.2
20260505161617 77 211 2.0 8.0 0.00 0.00 0.00 42 1011.4
20260505161041 77 202 2.0 9.0 0.00 0.00 0.00 42 1011.4
20260505160547 76 187 3.0 11.0 0.00 0.00 0.00 41 1011.5